Terminal Aerodrome Forecast
Issued by NWS

Home | Current Version | Previous Version | Text Only | Print | Product List | Glossary On
Versions: 1 2 3 4 5 6 7 8 9 10 11 12 13 14 15 16 17 18 19 20 21 22 23
000
FTAK31 PAFA 232340
TAFATA
TAF
PATA 232340Z 2400/2424 09008KT 1/4SM SN FZFG VV011
     FM240400 12010G18KT 3/4SM -SN BKN007 OVC015
     FM240900 15010KT 1SM -SN BR OVC015
     FM241200 20010KT 1SM -SN BR BKN010 OVC025
     FM241600 22012KT 5SM -SN BKN015 OVC035
     FM242200 25010G17KT 5SM BR OVC050=

USA.gov is the U.S. government's official web portal to all federal, state and local government web resources and services.